KDED/DED METAR and TAF weather

Enter ICAO airport designator
Station Type Date Time Source
KDED METAR 2019/02/23 02:35 UTC NOAA

KDED 230235Z AUTO 08005KT 10SM CLR 21/20 A3019 RMK AO2


Station Type Date Time Source
KDED Decoded METAR 2019/02/23 02:35 UTC NOAA

Station name not available
Feb 22, 2019 - 09:35 PM EST / 2019.02.23 0235 UTC
Wind: from the E (080 degrees) at 6 MPH (5 KT):0
Visibility: 10 mile(s):0
Sky conditions: clear
Temperature: 69 F (21 C)
Dew Point: 68 F (20 C)
Relative Humidity: 94%
Pressure (altimeter): 30.19 in. Hg (1022 hPa)
ob: KDED 230235Z AUTO 08005KT 10SM CLR 21/20 A3019 RMK AO2
cycle: 2

Station Type Date Time Source
KDED TAF UTC NOAA

Error!


Example: see airport list